Airfield :
LOGIN :

Register | Disclaimer

   EN    FR    IT 

 










Legend :    VFR   Marginal VFR   IFR   Intensive IFR   Very Intensive IFR
Visi :
Ceiling :
>= 8 km
>= 3000ft
5 to 8 km
1000 to 3000 ft
1500m to 5 km
500 to 1000 ft
800 to 1500m
200 to 500 ft
< 800m
< 200 ft
Symbols :   Thunderstorms  Fog  Heavy snow  Heavy precipitations  Wind > 20 kt
SIGMETs :     Misc.  Thunderstorms  Icing  Turbulence  Mountain Waves  Volcanic Ashes







- Airport Elevation : 157 ft
- IATA code : LIL
- Download approach charts


LFQQ - Lille Lesquin

CURRENT METAR :
  • 221230Z AUTO 18015KT CAVOK 13/07 Q1005 BECMG 19015G25KT

EXPIRED METARs :
  • 221200Z AUTO 18015KT CAVOK 13/07 Q1005 BECMG 19015G25KT
  • 221130Z AUTO 18016KT CAVOK 12/07 Q1006 BECMG 19015G25KT
  • 221100Z AUTO 18014KT 9000 NSC 11/07 Q1006 BECMG 19017G27KT
  • 221030Z AUTO 19018KT 9000 NSC 11/07 Q1007 BECMG 19017G27KT
  • 221000Z AUTO 18018KT 9000 NSC 11/07 Q1007 BECMG 19017G27KT

TAF TAF LFQQ
Valid from the 22 at 12:00 until the 23 at 18:00 UTC


221100Z 2212/2318 19015G25KT CAVOK
TEMPO 2311/2313 4000 RA BKN013
BECMG 2300/2302 18020G30KT
BECMG 2310/2312 25013KT
ATIS : +33 3 20 16 19 54
No reported NOTAMs for that airfield.



MET'MAP, your aeronautical weather chart ! - Copyright ORBIFLY December 2007 - Disclaimer

ORBIFLY MET'MAP TEAM :

Programming & Development : Alexandra Zaïnal
Concept & Development : Baudouin d'Aumeries
Co-Development & Prog : Marc-Olivier Méhu
Technical & hardware support : Manuel Goepfert

Contact : metmap@orbifly.com




SOURCES & CREDITS :

   NOAA